Impacts TAF Board
For situational awareness. Not to be used for flight planning purposes.
IDs:

KDEN - Denver Intl, CO, US

Issued at 2044 UTC 21 Sep 2021
Updated at 2323 UTC 21 Sep 2021
Potential Impact None Slight Moderate High
Time2253Z 22/00Z 22/01Z 22/02Z 22/03Z 22/04Z 22/05Z 22/06Z 22/07Z 22/08Z 22/09Z 22/10Z 22/11Z 22/12Z>>
Type OBS PRVL PRVL PRVL PRVL PRVL PRVL PRVL PRVL PRVL PRVL PRVL PRVL PRVL
VIS 10 >6 >6 >6 >6 >6 >6 >6 >6 >6 >6 >6 >6 >6
CIG -- -- -- -- -- -- -- -- -- -- -- -- -- --
Cover FEW FEW FEW FEW FEW FEW FEW FEW FEW FEW FEW FEW FEW SKC
FltCat VFR VFR VFR VFR VFR VFR VFR VFR VFR VFR VFR VFR VFR VFR
WX -- -- -- -- -- -- -- -- -- -- -- -- -- --
WDir 80 90 90 90 140 140 140 140 200 200 200 200 200 250
WSpd 7 7 7 7 10 10 10 10 9 9 9 9 9 7
WGst 16 -- -- -- -- -- -- -- -- -- -- -- -- --
Raw TAF
KDEN 212044Z 2121/2224 09007KT P6SM FEW080
  FM220300 14010KT P6SM FEW080
  FM220700 20009KT P6SM FEW090
  FM221200 25007KT P6SM SKC
  FM221600 VRB06KT P6SM SKC
  FM222000 10007KT P6SM SKC


Raw METAR
KDEN 212253Z 08007G16KT 10SM FEW250 18/M05 A3044 RMK AO2 SLP271 T01781050
KDEN 212153Z 07007KT 10SM FEW250 17/M05 A3045 RMK AO2 SLP275 T01721050
KDEN 212053Z VRB05KT 10SM FEW080 FEW220 17/M04 A3046 RMK AO2 SLP278 T01721044 58027

METAR Board
Radar Display
Forecast Discussion
For situational awareness. Not to be used for flight planning purposes.